createdAt,value
2022-08-18T00:00:50.090Z,99132.72
2022-08-18T00:04:57.260Z,99130.97
2022-08-18T00:09:02.785Z,99121.34
2022-08-18T00:13:06.094Z,99109.19
2022-08-18T00:17:09.715Z,99109.78
2022-08-18T00:21:14.370Z,99107.59
2022-08-18T00:25:19.663Z,99115.13
2022-08-18T00:29:22.924Z,99129.63
2022-08-18T00:33:26.032Z,99139.66
2022-08-18T00:37:30.516Z,99155.13
2022-08-18T00:41:34.083Z,99153.63
2022-08-18T00:45:39.643Z,99154.56
2022-08-18T00:49:45.853Z,99146.69
2022-08-18T00:53:57.033Z,99152.97
2022-08-18T00:58:04.742Z,99147.66
2022-08-18T01:02:12.449Z,99153.16
2022-08-18T01:06:19.553Z,99161.31
2022-08-18T01:10:25.111Z,99181.31
2022-08-18T01:14:28.232Z,99172.69
2022-08-18T01:18:48.541Z,99171.13
2022-08-18T01:23:01.614Z,99166.16
2022-08-18T01:27:05.272Z,99170.94
2022-08-18T01:31:09.162Z,99168.44
2022-08-18T01:35:14.478Z,99160.53
2022-08-18T01:41:24.657Z,99161.72
2022-08-18T01:43:43.183Z,99166.59
2022-08-18T01:47:47.668Z,99158.06
2022-08-18T01:52:01.435Z,99154.78
2022-08-18T01:56:07.073Z,99154.13
2022-08-18T02:00:12.522Z,99153.53
2022-08-18T02:04:34.558Z,99150.94
2022-08-18T02:08:42.116Z,99137.81
2022-08-18T02:12:49.760Z,99141.63
2022-08-18T02:16:53.044Z,99130.19
2022-08-18T02:21:10.435Z,99127.13
2022-08-18T02:25:15.451Z,99113.97
2022-08-18T02:29:20.505Z,99117.59
2022-08-18T02:33:24.035Z,99117.91
2022-08-18T02:37:27.834Z,99112.88
2022-08-18T02:41:31.620Z,99112.00
2022-08-18T02:45:36.474Z,99112.19
2022-08-18T02:49:41.488Z,99114.22
2022-08-18T02:53:47.838Z,99118.13
2022-08-18T02:57:51.716Z,99115.72
2022-08-18T03:02:00.842Z,99118.59
2022-08-18T03:06:12.988Z,99112.44
2022-08-18T03:10:33.148Z,99105.44
2022-08-18T03:14:48.162Z,99105.72
2022-08-18T03:19:10.142Z,99116.81
2022-08-18T03:27:48.280Z,99119.09
2022-08-18T03:32:28.803Z,99108.63
2022-08-18T03:36:48.818Z,99108.13
2022-08-18T03:41:04.611Z,99113.88
2022-08-18T03:45:23.229Z,99117.66
2022-08-18T03:49:27.443Z,99113.44
2022-08-18T03:53:33.454Z,99106.38
2022-08-18T03:57:39.249Z,99106.66
2022-08-18T04:01:45.376Z,99097.06
2022-08-18T04:05:51.483Z,99097.34
2022-08-18T04:09:56.740Z,99100.88
2022-08-18T04:14:00.438Z,99109.88
2022-08-18T04:18:08.930Z,99116.97
2022-08-18T04:22:18.128Z,99126.78
2022-08-18T04:26:29.411Z,99134.00
2022-08-18T04:30:42.846Z,99141.13
2022-08-18T04:35:14.348Z,99142.75
2022-08-18T04:39:20.105Z,99151.69
2022-08-18T04:43:24.903Z,99149.94
2022-08-18T04:47:28.513Z,99152.38
2022-08-18T04:52:26.622Z,99152.09
2022-08-18T04:56:00.641Z,99173.25
2022-08-18T05:00:07.980Z,99174.81
2022-08-18T05:04:15.806Z,99168.31
2022-08-18T05:08:19.479Z,99166.16
2022-08-18T05:12:26.791Z,99166.75
2022-08-18T05:16:48.246Z,99175.28
2022-08-18T05:20:53.889Z,99176.69
2022-08-18T05:25:01.734Z,99186.09
2022-08-18T05:29:18.788Z,99191.88
2022-08-18T05:33:24.984Z,99193.06
2022-08-18T05:37:37.445Z,99197.03
2022-08-18T05:41:44.766Z,99201.69
2022-08-18T05:45:54.902Z,99207.03
2022-08-18T05:50:10.784Z,99202.34
2022-08-18T05:54:33.943Z,99207.63
2022-08-18T05:58:41.797Z,99202.22
2022-08-18T06:02:51.406Z,99206.69
2022-08-18T06:06:59.249Z,99208.22
2022-08-18T06:11:06.916Z,99198.81
2022-08-18T06:15:33.842Z,99198.41
2022-08-18T06:19:46.822Z,99199.78
2022-08-18T06:24:02.874Z,99206.09
2022-08-18T06:28:11.079Z,99209.06
2022-08-18T06:32:28.511Z,99214.94
2022-08-18T06:36:44.302Z,99218.28
2022-08-18T06:40:51.401Z,99227.25
2022-08-18T06:45:00.306Z,99232.34
2022-08-18T06:49:06.847Z,99228.91
2022-08-18T06:53:26.895Z,99230.78
2022-08-18T06:57:35.905Z,99232.78
2022-08-18T07:01:45.817Z,99247.56
2022-08-18T07:06:02.179Z,99254.16
2022-08-18T07:10:16.035Z,99264.47
2022-08-18T07:14:24.453Z,99267.00
2022-08-18T07:18:29.976Z,99267.16
2022-08-18T07:22:39.206Z,99279.84
2022-08-18T07:27:01.768Z,99282.63
2022-08-18T07:31:28.877Z,99283.44
2022-08-18T07:35:37.625Z,99290.00
2022-08-18T07:39:47.433Z,99300.69
2022-08-18T07:44:12.893Z,99297.50
2022-08-18T07:48:37.685Z,99301.59
2022-08-18T07:52:50.549Z,99291.47
2022-08-18T07:57:00.977Z,99285.88
2022-08-18T08:01:12.957Z,99277.44
2022-08-18T08:05:26.009Z,99290.78
2022-08-18T08:09:37.723Z,99301.31
2022-08-18T08:13:56.354Z,99295.44
2022-08-18T08:18:10.626Z,99291.28
2022-08-18T08:22:21.097Z,99284.94
2022-08-18T08:26:52.114Z,99290.59
2022-08-18T08:31:33.422Z,99276.63
2022-08-18T08:35:48.889Z,99268.63
2022-08-18T08:40:08.791Z,99267.53
2022-08-18T08:44:19.209Z,99261.44
2022-08-18T08:48:29.703Z,99253.97
2022-08-18T08:52:40.747Z,99239.13
2022-08-18T08:56:50.833Z,99219.81
2022-08-18T09:00:55.309Z,99202.25
2022-08-18T09:05:09.874Z,99185.34
2022-08-18T09:09:32.029Z,99189.50
2022-08-18T09:14:05.148Z,99177.38
2022-08-18T09:18:31.314Z,99165.78
2022-08-18T09:22:46.796Z,99147.03
2022-08-18T09:26:54.065Z,99150.69
2022-08-18T09:31:20.086Z,99157.00
2022-08-18T09:35:45.055Z,99172.47
2022-08-18T09:40:33.365Z,99179.75
2022-08-18T09:45:07.327Z,99182.69
2022-08-18T09:49:55.563Z,99180.38
2022-08-18T09:54:25.207Z,99170.16
2022-08-18T09:59:02.796Z,99173.44
2022-08-18T10:03:26.481Z,99171.75
2022-08-18T10:07:43.540Z,99165.47
2022-08-18T10:12:19.140Z,99155.41
2022-08-18T10:17:04.959Z,99149.16
2022-08-18T10:21:22.835Z,99163.34
2022-08-18T10:25:39.261Z,99162.44
2022-08-18T10:29:52.219Z,99163.44
2022-08-18T10:34:24.663Z,99147.44
2022-08-18T10:38:48.956Z,99141.19
2022-08-18T10:42:59.205Z,99134.97
2022-08-18T10:47:11.860Z,99123.97
2022-08-18T10:51:29.468Z,99108.88
2022-08-18T10:56:01.905Z,99092.72
2022-08-18T11:00:12.413Z,99106.06
2022-08-18T11:04:34.790Z,99110.53
2022-08-18T11:08:47.112Z,99106.66
2022-08-18T11:13:09.726Z,99098.78
2022-08-18T11:17:24.260Z,99099.13
2022-08-18T11:21:42.102Z,99094.44
2022-08-18T11:25:46.162Z,99096.88
2022-08-18T11:29:52.794Z,99096.97
2022-08-18T11:33:56.000Z,99074.63
2022-08-18T11:38:03.715Z,99069.75
2022-08-18T11:42:15.646Z,99081.03
2022-08-18T11:46:31.978Z,99078.00
2022-08-18T11:50:40.630Z,99074.09
2022-08-18T11:55:24.648Z,99092.38
2022-08-18T11:59:52.581Z,99084.19
2022-08-18T12:03:57.656Z,99093.94
2022-08-18T12:08:01.832Z,99086.47
2022-08-18T12:12:18.744Z,99083.53
2022-08-18T12:16:34.666Z,99073.78
2022-08-18T12:20:39.374Z,99083.41
2022-08-18T12:24:42.497Z,99071.06
2022-08-18T12:28:47.987Z,99055.47
2022-08-18T12:33:12.787Z,99054.13
2022-08-18T12:37:57.628Z,99046.59
2022-08-18T12:41:45.430Z,99033.56
2022-08-18T12:45:51.540Z,99035.44
2022-08-18T12:49:54.941Z,99032.72
2022-08-18T12:54:01.789Z,99021.03
2022-08-18T12:58:08.209Z,99000.69
2022-08-18T13:02:12.960Z,98988.50
2022-08-18T13:06:22.508Z,98999.09
2022-08-18T13:10:42.869Z,98991.38
2022-08-18T13:15:03.336Z,99001.16
2022-08-18T13:19:15.851Z,98998.25
2022-08-18T13:23:24.472Z,98997.19
2022-08-18T13:27:32.743Z,98986.56
2022-08-18T13:31:39.649Z,98995.84
2022-08-18T13:35:45.047Z,99007.47
2022-08-18T13:39:50.827Z,99015.00
2022-08-18T13:43:59.068Z,99018.06
2022-08-18T13:48:02.839Z,99034.50
2022-08-18T13:52:33.151Z,99038.25
2022-08-18T13:56:41.770Z,99034.50
2022-08-18T14:05:36.937Z,99015.16
2022-08-18T14:09:57.349Z,99019.44
2022-08-18T14:14:01.889Z,99009.88
2022-08-18T14:18:08.719Z,99004.72
2022-08-18T14:22:42.569Z,99021.53
2022-08-18T14:26:55.548Z,99026.00
2022-08-18T14:31:01.029Z,99017.44
2022-08-18T14:35:33.078Z,99016.94
2022-08-18T14:39:29.745Z,99025.34
2022-08-18T14:44:10.933Z,99025.38
2022-08-18T14:47:59.278Z,99028.97
2022-08-18T14:52:03.341Z,99035.66
2022-08-18T14:56:13.898Z,99028.47
2022-08-18T15:00:22.710Z,99021.78
2022-08-18T15:04:27.535Z,99019.44
2022-08-18T15:08:31.173Z,99028.66
2022-08-18T15:12:35.392Z,99027.13
2022-08-18T15:16:39.956Z,99019.41
2022-08-18T15:21:02.599Z,99017.16
2022-08-18T15:25:31.076Z,99010.69
2022-08-18T15:29:35.677Z,99002.50
2022-08-18T15:33:40.230Z,98990.50
2022-08-18T15:37:47.544Z,98989.00
2022-08-18T15:41:54.719Z,98986.09
2022-08-18T15:45:58.487Z,98978.38
2022-08-18T15:50:21.861Z,98988.66
2022-08-18T15:54:26.419Z,98973.38
2022-08-18T15:58:29.544Z,98968.44
2022-08-18T16:02:32.790Z,98951.16
2022-08-18T16:06:45.173Z,98947.75
2022-08-18T16:10:49.193Z,98946.41
2022-08-18T16:14:53.250Z,98926.06
2022-08-18T16:18:58.411Z,98912.72
2022-08-18T16:23:03.317Z,98911.19
2022-08-18T16:27:07.015Z,98905.19
2022-08-18T16:31:10.776Z,98913.53
2022-08-18T16:35:14.230Z,98914.56
2022-08-18T16:39:18.914Z,98914.53
2022-08-18T16:43:23.403Z,98909.25
2022-08-18T16:47:27.201Z,98919.13
2022-08-18T16:51:30.643Z,98918.63
2022-08-18T16:55:35.250Z,98917.91
2022-08-18T16:59:56.346Z,98928.09
2022-08-18T17:04:13.517Z,98933.19
2022-08-18T17:08:18.168Z,98935.88
2022-08-18T17:12:22.852Z,98948.31
2022-08-18T17:16:28.476Z,98953.28
2022-08-18T17:20:34.536Z,98984.50
2022-08-18T17:24:38.184Z,98966.66
2022-08-18T17:29:02.912Z,98977.75
2022-08-18T17:33:11.971Z,98973.28
2022-08-18T17:37:18.519Z,98965.34
2022-08-18T17:41:23.698Z,98972.88
2022-08-18T17:45:31.946Z,98958.91
2022-08-18T17:50:26.246Z,98970.16
2022-08-18T17:54:30.569Z,98956.31
2022-08-18T17:58:40.431Z,98964.00
2022-08-18T18:02:46.770Z,98963.16
2022-08-18T18:06:51.958Z,98969.25
2022-08-18T18:11:11.234Z,98961.34
2022-08-18T18:15:15.416Z,98961.53
2022-08-18T18:19:26.119Z,98938.34
2022-08-18T18:23:32.460Z,98941.25
2022-08-18T18:27:41.806Z,98941.69
2022-08-18T18:31:47.399Z,98928.09
2022-08-18T18:35:57.021Z,98927.25
2022-08-18T18:40:03.663Z,98921.25
2022-08-18T18:44:10.196Z,98907.50
2022-08-18T18:48:48.083Z,98918.13
2022-08-18T18:52:59.821Z,98918.81
2022-08-18T18:57:03.576Z,98924.84
2022-08-18T19:01:13.080Z,98937.84
2022-08-18T19:05:27.874Z,98936.63
2022-08-18T19:09:39.658Z,98937.47
2022-08-18T19:13:47.263Z,98940.31
2022-08-18T19:18:03.150Z,98942.59
2022-08-18T19:22:14.938Z,98927.69
2022-08-18T19:26:27.233Z,98933.56
2022-08-18T19:30:31.586Z,98934.50
2022-08-18T19:34:51.151Z,98925.31
2022-08-18T19:39:03.172Z,98933.97
2022-08-18T19:43:12.844Z,98938.34
2022-08-18T19:47:20.191Z,98937.16
2022-08-18T19:51:35.063Z,98943.16
2022-08-18T19:55:53.962Z,98943.94
2022-08-18T20:00:11.798Z,98960.38
2022-08-18T20:04:34.485Z,98960.28
2022-08-18T20:09:02.041Z,98965.66
2022-08-18T20:13:32.944Z,98967.31
2022-08-18T20:18:02.361Z,98980.63
2022-08-18T20:22:10.457Z,98969.44
2022-08-18T20:26:43.084Z,98962.97
2022-08-18T20:31:01.791Z,98983.16
2022-08-18T20:35:18.604Z,98980.94
2022-08-18T20:39:54.412Z,98986.84
2022-08-18T20:44:02.709Z,98997.47
2022-08-18T20:48:29.188Z,99013.47
2022-08-18T20:52:43.244Z,99001.66
2022-08-18T20:56:50.665Z,99002.69
2022-08-18T21:00:58.690Z,98996.28
2022-08-18T21:05:02.143Z,98996.75
2022-08-18T21:09:06.803Z,98988.63
2022-08-18T21:13:09.967Z,98991.59
2022-08-18T21:17:15.428Z,98992.91
2022-08-18T21:21:28.382Z,98995.38
2022-08-18T21:25:33.800Z,99004.19
2022-08-18T21:29:46.847Z,98997.44
2022-08-18T21:33:53.181Z,99001.38
2022-08-18T21:38:01.415Z,98999.22
2022-08-18T21:42:08.454Z,98988.41
2022-08-18T21:46:13.419Z,98984.56
2022-08-18T21:50:19.377Z,98991.16
2022-08-18T21:54:24.968Z,98986.03
2022-08-18T21:58:38.935Z,98988.22
2022-08-18T22:02:42.733Z,98983.25
2022-08-18T22:06:50.460Z,98992.59
2022-08-18T22:12:00.623Z,98979.53
2022-08-18T22:16:28.892Z,98982.72
2022-08-18T22:20:49.172Z,99003.03
2022-08-18T22:24:57.353Z,99001.72
2022-08-18T22:29:04.729Z,99011.25
2022-08-18T22:33:09.306Z,99019.09
2022-08-18T22:37:15.660Z,99011.44
2022-08-18T22:41:23.309Z,99018.25
2022-08-18T22:45:26.684Z,99020.44
2022-08-18T22:49:35.889Z,99025.28
2022-08-18T22:53:39.200Z,99019.38
2022-08-18T22:57:46.242Z,99027.56
2022-08-18T23:01:51.885Z,99021.31
2022-08-18T23:05:56.357Z,99019.38
2022-08-18T23:10:00.059Z,99012.13
2022-08-18T23:14:03.424Z,99013.13
2022-08-18T23:18:07.682Z,99008.69
2022-08-18T23:22:12.471Z,99004.41
2022-08-18T23:26:15.577Z,99003.88
2022-08-18T23:30:18.683Z,99002.13
2022-08-18T23:34:24.443Z,99008.63
2022-08-18T23:38:31.587Z,99001.38
2022-08-18T23:42:34.981Z,99002.13
2022-08-18T23:46:38.106Z,99004.09
2022-08-18T23:50:43.372Z,99002.53
2022-08-18T23:54:48.397Z,98996.50
2022-08-18T23:58:54.006Z,98995.09
